sensor_id;sensor_type;location;lat;lon;timestamp;temperature;humidity
39675;DHT22;27790;50.840;4.386;2024-01-10T00:01:17;-2.00;88.20
39675;DHT22;27790;50.840;4.386;2024-01-10T00:03:43;-1.90;88.40
39675;DHT22;27790;50.840;4.386;2024-01-10T00:06:10;-1.90;88.60
39675;DHT22;27790;50.840;4.386;2024-01-10T00:08:36;-1.90;88.50
39675;DHT22;27790;50.840;4.386;2024-01-10T00:11:01;-2.00;88.50
39675;DHT22;27790;50.840;4.386;2024-01-10T00:13:27;-2.00;88.60
39675;DHT22;27790;50.840;4.386;2024-01-10T00:15:53;-2.10;88.90
39675;DHT22;27790;50.840;4.386;2024-01-10T00:18:21;-2.10;89.30
39675;DHT22;27790;50.840;4.386;2024-01-10T00:20:46;-2.20;89.40
39675;DHT22;27790;50.840;4.386;2024-01-10T00:23:12;-2.20;89.50
39675;DHT22;27790;50.840;4.386;2024-01-10T00:25:38;-2.30;89.80
39675;DHT22;27790;50.840;4.386;2024-01-10T00:28:04;-2.40;90.00
39675;DHT22;27790;50.840;4.386;2024-01-10T00:30:30;-2.40;90.10
39675;DHT22;27790;50.840;4.386;2024-01-10T00:32:55;-2.40;90.10
39675;DHT22;27790;50.840;4.386;2024-01-10T00:35:21;-2.50;90.20
39675;DHT22;27790;50.840;4.386;2024-01-10T00:37:46;-2.40;90.20
39675;DHT22;27790;50.840;4.386;2024-01-10T00:40:12;-2.30;90.10
39675;DHT22;27790;50.840;4.386;2024-01-10T00:42:37;-2.30;90.10
39675;DHT22;27790;50.840;4.386;2024-01-10T00:45:03;-2.30;90.20
39675;DHT22;27790;50.840;4.386;2024-01-10T00:47:30;-2.30;90.10
39675;DHT22;27790;50.840;4.386;2024-01-10T00:49:55;-2.30;90.10
39675;DHT22;27790;50.840;4.386;2024-01-10T00:52:21;-2.30;90.10
39675;DHT22;27790;50.840;4.386;2024-01-10T00:54:46;-2.30;90.10
39675;DHT22;27790;50.840;4.386;2024-01-10T00:57:12;-2.30;90.10
39675;DHT22;27790;50.840;4.386;2024-01-10T00:59:38;-2.30;90.00
39675;DHT22;27790;50.840;4.386;2024-01-10T01:02:03;-2.30;90.30
39675;DHT22;27790;50.840;4.386;2024-01-10T01:04:28;-2.30;90.30
39675;DHT22;27790;50.840;4.386;2024-01-10T01:06:54;-2.40;90.50
39675;DHT22;27790;50.840;4.386;2024-01-10T01:09:19;-2.40;90.40
39675;DHT22;27790;50.840;4.386;2024-01-10T01:11:45;-2.40;90.50
39675;DHT22;27790;50.840;4.386;2024-01-10T01:14:11;-2.40;90.50
39675;DHT22;27790;50.840;4.386;2024-01-10T01:16:36;-2.40;90.50
39675;DHT22;27790;50.840;4.386;2024-01-10T01:19:02;-2.40;90.50
39675;DHT22;27790;50.840;4.386;2024-01-10T01:21:27;-2.40;90.50
39675;DHT22;27790;50.840;4.386;2024-01-10T01:23:54;-2.50;90.50
39675;DHT22;27790;50.840;4.386;2024-01-10T01:26:20;-2.50;90.60
39675;DHT22;27790;50.840;4.386;2024-01-10T01:28:45;-2.50;90.60
39675;DHT22;27790;50.840;4.386;2024-01-10T01:31:11;-2.40;90.50
39675;DHT22;27790;50.840;4.386;2024-01-10T01:33:36;-2.40;90.50
39675;DHT22;27790;50.840;4.386;2024-01-10T01:36:05;-2.50;90.60
39675;DHT22;27790;50.840;4.386;2024-01-10T01:38:30;-2.50;90.80
39675;DHT22;27790;50.840;4.386;2024-01-10T01:40:56;-2.50;90.70
39675;DHT22;27790;50.840;4.386;2024-01-10T01:43:25;-2.50;90.80
39675;DHT22;27790;50.840;4.386;2024-01-10T01:45:53;-2.50;90.80
39675;DHT22;27790;50.840;4.386;2024-01-10T01:48:20;-2.60;90.90
39675;DHT22;27790;50.840;4.386;2024-01-10T01:50:46;-2.50;90.90
39675;DHT22;27790;50.840;4.386;2024-01-10T01:53:15;-2.60;90.90
39675;DHT22;27790;50.840;4.386;2024-01-10T01:55:42;-2.70;90.80
39675;DHT22;27790;50.840;4.386;2024-01-10T01:58:09;-2.60;91.00
39675;DHT22;27790;50.840;4.386;2024-01-10T02:00:35;-2.50;90.80
39675;DHT22;27790;50.840;4.386;2024-01-10T02:03:00;-2.60;90.80
39675;DHT22;27790;50.840;4.386;2024-01-10T02:05:26;-2.70;90.90
39675;DHT22;27790;50.840;4.386;2024-01-10T02:07:52;-2.70;91.10
39675;DHT22;27790;50.840;4.386;2024-01-10T02:10:19;-2.70;91.00
39675;DHT22;27790;50.840;4.386;2024-01-10T02:12:45;-2.70;91.10
39675;DHT22;27790;50.840;4.386;2024-01-10T02:15:11;-2.70;91.10
39675;DHT22;27790;50.840;4.386;2024-01-10T02:17:37;-2.70;91.10
39675;DHT22;27790;50.840;4.386;2024-01-10T02:20:10;-2.70;91.00
39675;DHT22;27790;50.840;4.386;2024-01-10T02:22:36;-2.60;91.00
39675;DHT22;27790;50.840;4.386;2024-01-10T02:25:04;-2.60;90.90
39675;DHT22;27790;50.840;4.386;2024-01-10T02:27:30;-2.50;90.80
39675;DHT22;27790;50.840;4.386;2024-01-10T02:29:56;-2.50;90.80
39675;DHT22;27790;50.840;4.386;2024-01-10T02:32:23;-2.40;90.70
39675;DHT22;27790;50.840;4.386;2024-01-10T02:34:48;-2.60;90.80
39675;DHT22;27790;50.840;4.386;2024-01-10T02:37:14;-2.60;90.90
39675;DHT22;27790;50.840;4.386;2024-01-10T02:39:40;-2.60;91.00
39675;DHT22;27790;50.840;4.386;2024-01-10T02:42:05;-2.70;90.90
39675;DHT22;27790;50.840;4.386;2024-01-10T02:44:31;-2.60;90.90
39675;DHT22;27790;50.840;4.386;2024-01-10T02:46:56;-2.70;90.80
39675;DHT22;27790;50.840;4.386;2024-01-10T02:49:22;-2.70;91.00
39675;DHT22;27790;50.840;4.386;2024-01-10T02:51:48;-2.60;91.00
39675;DHT22;27790;50.840;4.386;2024-01-10T02:54:13;-2.70;90.90
39675;DHT22;27790;50.840;4.386;2024-01-10T02:56:39;-2.70;91.40
39675;DHT22;27790;50.840;4.386;2024-01-10T02:59:04;-2.60;91.10
39675;DHT22;27790;50.840;4.386;2024-01-10T03:01:30;-2.60;91.20
39675;DHT22;27790;50.840;4.386;2024-01-10T03:03:55;-2.50;91.00
39675;DHT22;27790;50.840;4.386;2024-01-10T03:06:21;-2.50;91.00
39675;DHT22;27790;50.840;4.386;2024-01-10T03:08:46;-2.50;90.90
39675;DHT22;27790;50.840;4.386;2024-01-10T03:11:12;-2.40;90.80
39675;DHT22;27790;50.840;4.386;2024-01-10T03:13:37;-2.50;90.80
39675;DHT22;27790;50.840;4.386;2024-01-10T03:16:04;-2.60;90.90
39675;DHT22;27790;50.840;4.386;2024-01-10T03:18:30;-2.60;91.00
39675;DHT22;27790;50.840;4.386;2024-01-10T03:20:55;-2.60;90.90
39675;DHT22;27790;50.840;4.386;2024-01-10T03:23:21;-2.60;90.80
39675;DHT22;27790;50.840;4.386;2024-01-10T03:25:47;-2.70;90.90
39675;DHT22;27790;50.840;4.386;2024-01-10T03:28:16;-2.80;91.00
39675;DHT22;27790;50.840;4.386;2024-01-10T03:30:45;-2.70;91.10
39675;DHT22;27790;50.840;4.386;2024-01-10T03:33:11;-2.70;91.00
39675;DHT22;27790;50.840;4.386;2024-01-10T03:35:37;-2.60;90.90
39675;DHT22;27790;50.840;4.386;2024-01-10T03:38:02;-2.60;91.10
39675;DHT22;27790;50.840;4.386;2024-01-10T03:40:28;-2.60;90.90
39675;DHT22;27790;50.840;4.386;2024-01-10T03:42:53;-2.60;90.90
39675;DHT22;27790;50.840;4.386;2024-01-10T03:45:19;-2.60;90.90
39675;DHT22;27790;50.840;4.386;2024-01-10T03:47:48;-2.60;90.90
39675;DHT22;27790;50.840;4.386;2024-01-10T03:50:18;-2.60;90.80
39675;DHT22;27790;50.840;4.386;2024-01-10T03:52:45;-2.60;91.10
39675;DHT22;27790;50.840;4.386;2024-01-10T03:55:12;-2.70;91.00
39675;DHT22;27790;50.840;4.386;2024-01-10T03:57:38;-2.80;91.00
39675;DHT22;27790;50.840;4.386;2024-01-10T04:00:05;-2.80;91.00
39675;DHT22;27790;50.840;4.386;2024-01-10T04:02:31;-2.80;91.10
39675;DHT22;27790;50.840;4.386;2024-01-10T04:04:57;-2.70;91.00
39675;DHT22;27790;50.840;4.386;2024-01-10T04:07:23;-2.60;91.10
39675;DHT22;27790;50.840;4.386;2024-01-10T04:09:49;-2.50;90.70
39675;DHT22;27790;50.840;4.386;2024-01-10T04:14:43;-2.60;90.80
39675;DHT22;27790;50.840;4.386;2024-01-10T04:17:09;-2.60;90.90
39675;DHT22;27790;50.840;4.386;2024-01-10T04:19:34;-2.70;90.80
39675;DHT22;27790;50.840;4.386;2024-01-10T04:22:00;-2.80;90.90
39675;DHT22;27790;50.840;4.386;2024-01-10T04:24:26;-2.70;91.00
39675;DHT22;27790;50.840;4.386;2024-01-10T04:26:51;-2.70;90.90
39675;DHT22;27790;50.840;4.386;2024-01-10T04:29:17;-2.70;90.70
39675;DHT22;27790;50.840;4.386;2024-01-10T04:31:43;-2.60;90.80
39675;DHT22;27790;50.840;4.386;2024-01-10T04:34:08;-2.80;91.00
39675;DHT22;27790;50.840;4.386;2024-01-10T04:36:34;-2.80;91.00
39675;DHT22;27790;50.840;4.386;2024-01-10T04:38:59;-2.80;90.90
39675;DHT22;27790;50.840;4.386;2024-01-10T04:41:25;-2.90;91.00
39675;DHT22;27790;50.840;4.386;2024-01-10T04:43:51;-2.90;91.10
39675;DHT22;27790;50.840;4.386;2024-01-10T04:46:17;-2.90;90.90
39675;DHT22;27790;50.840;4.386;2024-01-10T04:48:42;-2.80;90.80
39675;DHT22;27790;50.840;4.386;2024-01-10T04:51:08;-2.80;90.80
39675;DHT22;27790;50.840;4.386;2024-01-10T04:53:33;-2.90;90.80
39675;DHT22;27790;50.840;4.386;2024-01-10T04:55:59;-3.00;91.00
39675;DHT22;27790;50.840;4.386;2024-01-10T04:58:25;-3.00;91.10
39675;DHT22;27790;50.840;4.386;2024-01-10T05:00:50;-3.00;90.90
39675;DHT22;27790;50.840;4.386;2024-01-10T05:03:16;-3.00;91.10
39675;DHT22;27790;50.840;4.386;2024-01-10T05:05:42;-3.10;91.20
39675;DHT22;27790;50.840;4.386;2024-01-10T05:08:07;-3.00;91.20
39675;DHT22;27790;50.840;4.386;2024-01-10T05:10:33;-3.20;91.30
39675;DHT22;27790;50.840;4.386;2024-01-10T05:12:58;-3.30;91.50
39675;DHT22;27790;50.840;4.386;2024-01-10T05:15:24;-3.20;91.50
39675;DHT22;27790;50.840;4.386;2024-01-10T05:17:50;-3.20;91.50
39675;DHT22;27790;50.840;4.386;2024-01-10T05:20:15;-3.30;91.50
39675;DHT22;27790;50.840;4.386;2024-01-10T05:22:42;-3.20;91.60
39675;DHT22;27790;50.840;4.386;2024-01-10T05:25:08;-3.30;91.50
39675;DHT22;27790;50.840;4.386;2024-01-10T05:27:34;-3.30;91.60
39675;DHT22;27790;50.840;4.386;2024-01-10T05:29:59;-3.30;91.70
39675;DHT22;27790;50.840;4.386;2024-01-10T05:32:26;-3.30;91.80
39675;DHT22;27790;50.840;4.386;2024-01-10T05:34:53;-3.20;91.60
39675;DHT22;27790;50.840;4.386;2024-01-10T05:37:18;-3.20;91.40
39675;DHT22;27790;50.840;4.386;2024-01-10T05:39:44;-3.20;91.60
39675;DHT22;27790;50.840;4.386;2024-01-10T05:42:10;-3.20;91.60
39675;DHT22;27790;50.840;4.386;2024-01-10T05:44:36;-3.10;91.50
39675;DHT22;27790;50.840;4.386;2024-01-10T05:47:02;-3.10;91.50
39675;DHT22;27790;50.840;4.386;2024-01-10T05:49:28;-3.20;91.60
39675;DHT22;27790;50.840;4.386;2024-01-10T05:51:54;-3.20;91.60
39675;DHT22;27790;50.840;4.386;2024-01-10T05:54:19;-3.20;91.60
39675;DHT22;27790;50.840;4.386;2024-01-10T05:56:45;-3.20;91.50
39675;DHT22;27790;50.840;4.386;2024-01-10T05:59:11;-3.20;91.30
39675;DHT22;27790;50.840;4.386;2024-01-10T06:01:41;-3.20;91.50
39675;DHT22;27790;50.840;4.386;2024-01-10T06:04:06;-3.20;91.50
39675;DHT22;27790;50.840;4.386;2024-01-10T06:06:32;-3.20;91.50
39675;DHT22;27790;50.840;4.386;2024-01-10T06:08:58;-3.20;91.50
39675;DHT22;27790;50.840;4.386;2024-01-10T06:11:24;-3.10;91.40
39675;DHT22;27790;50.840;4.386;2024-01-10T06:13:49;-3.10;91.50
39675;DHT22;27790;50.840;4.386;2024-01-10T06:16:15;-3.20;91.40
39675;DHT22;27790;50.840;4.386;2024-01-10T06:18:41;-3.20;91.30
39675;DHT22;27790;50.840;4.386;2024-01-10T06:21:06;-3.20;91.50
39675;DHT22;27790;50.840;4.386;2024-01-10T06:23:32;-3.10;91.50
39675;DHT22;27790;50.840;4.386;2024-01-10T06:25:57;-3.10;91.30
39675;DHT22;27790;50.840;4.386;2024-01-10T06:28:23;-3.10;91.30
39675;DHT22;27790;50.840;4.386;2024-01-10T06:30:49;-3.10;91.20
39675;DHT22;27790;50.840;4.386;2024-01-10T06:33:15;-3.20;91.30
39675;DHT22;27790;50.840;4.386;2024-01-10T06:35:41;-3.10;91.50
39675;DHT22;27790;50.840;4.386;2024-01-10T06:38:10;-3.10;91.40
39675;DHT22;27790;50.840;4.386;2024-01-10T06:40:36;-3.10;91.30
39675;DHT22;27790;50.840;4.386;2024-01-10T06:43:02;-3.10;91.30
39675;DHT22;27790;50.840;4.386;2024-01-10T06:45:28;-3.20;91.50
39675;DHT22;27790;50.840;4.386;2024-01-10T06:47:55;-3.10;91.60
39675;DHT22;27790;50.840;4.386;2024-01-10T06:50:20;-3.10;91.60
39675;DHT22;27790;50.840;4.386;2024-01-10T06:52:47;-2.90;91.30
39675;DHT22;27790;50.840;4.386;2024-01-10T06:55:13;-3.00;91.30
39675;DHT22;27790;50.840;4.386;2024-01-10T06:57:39;-3.10;91.30
39675;DHT22;27790;50.840;4.386;2024-01-10T07:00:05;-3.00;91.20
39675;DHT22;27790;50.840;4.386;2024-01-10T07:02:36;-3.10;91.30
39675;DHT22;27790;50.840;4.386;2024-01-10T07:05:08;-3.10;91.30
39675;DHT22;27790;50.840;4.386;2024-01-10T07:07:33;-3.10;91.20
39675;DHT22;27790;50.840;4.386;2024-01-10T07:10:00;-3.10;91.10
39675;DHT22;27790;50.840;4.386;2024-01-10T07:14:51;-3.00;91.10
39675;DHT22;27790;50.840;4.386;2024-01-10T07:17:17;-3.10;91.10
39675;DHT22;27790;50.840;4.386;2024-01-10T07:19:42;-3.20;91.30
39675;DHT22;27790;50.840;4.386;2024-01-10T07:22:08;-3.20;91.50
39675;DHT22;27790;50.840;4.386;2024-01-10T07:24:35;-3.00;91.10
39675;DHT22;27790;50.840;4.386;2024-01-10T07:27:01;-3.10;91.20
39675;DHT22;27790;50.840;4.386;2024-01-10T07:29:26;-3.00;91.20
39675;DHT22;27790;50.840;4.386;2024-01-10T07:31:52;-3.00;91.10
39675;DHT22;27790;50.840;4.386;2024-01-10T07:34:18;-3.00;91.20
39675;DHT22;27790;50.840;4.386;2024-01-10T07:36:43;-3.10;91.20
39675;DHT22;27790;50.840;4.386;2024-01-10T07:39:09;-3.10;91.20
39675;DHT22;27790;50.840;4.386;2024-01-10T07:41:35;-3.10;91.30
39675;DHT22;27790;50.840;4.386;2024-01-10T07:44:00;-3.20;91.50
39675;DHT22;27790;50.840;4.386;2024-01-10T07:46:26;-3.10;91.60
39675;DHT22;27790;50.840;4.386;2024-01-10T07:48:52;-3.10;91.60
39675;DHT22;27790;50.840;4.386;2024-01-10T07:51:18;-2.90;91.50
39675;DHT22;27790;50.840;4.386;2024-01-10T07:53:44;-2.90;91.40
39675;DHT22;27790;50.840;4.386;2024-01-10T07:56:10;-2.90;90.90
39675;DHT22;27790;50.840;4.386;2024-01-10T07:58:38;-3.10;91.20
39675;DHT22;27790;50.840;4.386;2024-01-10T08:01:03;-3.10;91.40
39675;DHT22;27790;50.840;4.386;2024-01-10T08:03:29;-3.10;91.40
39675;DHT22;27790;50.840;4.386;2024-01-10T08:05:55;-3.00;91.20
39675;DHT22;27790;50.840;4.386;2024-01-10T08:08:20;-3.00;91.40
39675;DHT22;27790;50.840;4.386;2024-01-10T08:10:46;-3.00;91.30
39675;DHT22;27790;50.840;4.386;2024-01-10T08:13:11;-3.00;91.50
39675;DHT22;27790;50.840;4.386;2024-01-10T08:15:37;-3.00;91.20
39675;DHT22;27790;50.840;4.386;2024-01-10T08:18:03;-3.10;91.40
39675;DHT22;27790;50.840;4.386;2024-01-10T08:20:28;-3.00;91.60
39675;DHT22;27790;50.840;4.386;2024-01-10T08:22:54;-2.90;91.30
39675;DHT22;27790;50.840;4.386;2024-01-10T08:25:19;-3.00;91.50
39675;DHT22;27790;50.840;4.386;2024-01-10T08:27:45;-3.00;91.70
39675;DHT22;27790;50.840;4.386;2024-01-10T08:30:11;-3.00;91.60
39675;DHT22;27790;50.840;4.386;2024-01-10T08:32:37;-2.90;91.70
39675;DHT22;27790;50.840;4.386;2024-01-10T08:35:06;-2.70;91.40
39675;DHT22;27790;50.840;4.386;2024-01-10T08:37:34;-2.60;91.10
39675;DHT22;27790;50.840;4.386;2024-01-10T08:39:59;-2.60;91.00
39675;DHT22;27790;50.840;4.386;2024-01-10T08:42:26;-2.70;91.10
39675;DHT22;27790;50.840;4.386;2024-01-10T08:44:53;-2.60;91.10
39675;DHT22;27790;50.840;4.386;2024-01-10T08:47:18;-2.60;90.90
39675;DHT22;27790;50.840;4.386;2024-01-10T08:49:45;-2.70;90.90
39675;DHT22;27790;50.840;4.386;2024-01-10T08:52:10;-2.70;90.90
39675;DHT22;27790;50.840;4.386;2024-01-10T08:54:37;-2.60;91.10
39675;DHT22;27790;50.840;4.386;2024-01-10T08:57:02;-2.50;90.90
39675;DHT22;27790;50.840;4.386;2024-01-10T08:59:28;-2.40;91.00
39675;DHT22;27790;50.840;4.386;2024-01-10T09:01:54;-2.30;90.70
39675;DHT22;27790;50.840;4.386;2024-01-10T09:04:19;-2.30;90.70
39675;DHT22;27790;50.840;4.386;2024-01-10T09:06:45;-2.40;90.90
39675;DHT22;27790;50.840;4.386;2024-01-10T09:09:11;-2.30;90.70
39675;DHT22;27790;50.840;4.386;2024-01-10T09:11:38;-2.30;90.50
39675;DHT22;27790;50.840;4.386;2024-01-10T09:14:04;-2.40;90.70
39675;DHT22;27790;50.840;4.386;2024-01-10T09:16:29;-2.40;90.80
39675;DHT22;27790;50.840;4.386;2024-01-10T09:18:55;-2.30;90.40
39675;DHT22;27790;50.840;4.386;2024-01-10T09:21:23;-2.20;90.80
39675;DHT22;27790;50.840;4.386;2024-01-10T09:23:48;-2.20;90.70
39675;DHT22;27790;50.840;4.386;2024-01-10T09:26:17;-2.10;90.60
39675;DHT22;27790;50.840;4.386;2024-01-10T09:28:43;-2.10;90.30
39675;DHT22;27790;50.840;4.386;2024-01-10T09:31:08;-2.10;90.10
39675;DHT22;27790;50.840;4.386;2024-01-10T09:33:34;-2.10;90.30
39675;DHT22;27790;50.840;4.386;2024-01-10T09:36:00;-2.00;90.10
39675;DHT22;27790;50.840;4.386;2024-01-10T09:38:26;-1.90;90.00
39675;DHT22;27790;50.840;4.386;2024-01-10T09:40:53;-1.90;90.10
39675;DHT22;27790;50.840;4.386;2024-01-10T09:43:22;-1.80;89.80
39675;DHT22;27790;50.840;4.386;2024-01-10T09:45:49;-1.80;90.00
39675;DHT22;27790;50.840;4.386;2024-01-10T09:48:15;-1.80;90.20
39675;DHT22;27790;50.840;4.386;2024-01-10T09:50:41;-1.80;90.10
39675;DHT22;27790;50.840;4.386;2024-01-10T09:53:07;-1.60;90.20
39675;DHT22;27790;50.840;4.386;2024-01-10T09:55:37;-1.40;89.90
39675;DHT22;27790;50.840;4.386;2024-01-10T09:58:06;-1.20;89.40
39675;DHT22;27790;50.840;4.386;2024-01-10T10:00:34;-1.10;88.90
39675;DHT22;27790;50.840;4.386;2024-01-10T10:03:04;-1.20;88.80
39675;DHT22;27790;50.840;4.386;2024-01-10T10:05:32;-1.20;89.20
39675;DHT22;27790;50.840;4.386;2024-01-10T10:07:59;-1.10;88.60
39675;DHT22;27790;50.840;4.386;2024-01-10T10:10:28;-1.00;87.90
39675;DHT22;27790;50.840;4.386;2024-01-10T10:12:54;-1.00;88.30
39675;DHT22;27790;50.840;4.386;2024-01-10T10:15:24;-1.00;88.60
39675;DHT22;27790;50.840;4.386;2024-01-10T10:17:52;-0.80;88.50
39675;DHT22;27790;50.840;4.386;2024-01-10T10:20:23;-0.80;88.70
39675;DHT22;27790;50.840;4.386;2024-01-10T10:25:33;-0.60;87.60
39675;DHT22;27790;50.840;4.386;2024-01-10T10:28:00;-0.60;87.50
39675;DHT22;27790;50.840;4.386;2024-01-10T10:30:30;-0.50;87.40
39675;DHT22;27790;50.840;4.386;2024-01-10T10:32:56;-0.40;87.10
39675;DHT22;27790;50.840;4.386;2024-01-10T10:35:22;-0.30;86.30
39675;DHT22;27790;50.840;4.386;2024-01-10T10:37:49;-0.30;85.90
39675;DHT22;27790;50.840;4.386;2024-01-10T10:40:15;-0.20;85.40
39675;DHT22;27790;50.840;4.386;2024-01-10T10:42:56;-0.20;85.60
39675;DHT22;27790;50.840;4.386;2024-01-10T10:45:22;-0.20;85.60
39675;DHT22;27790;50.840;4.386;2024-01-10T10:48:00;-0.30;85.80
39675;DHT22;27790;50.840;4.386;2024-01-10T10:50:28;-0.30;86.00
39675;DHT22;27790;50.840;4.386;2024-01-10T10:52:55;-0.40;85.90
39675;DHT22;27790;50.840;4.386;2024-01-10T10:55:22;-0.30;86.80
39675;DHT22;27790;50.840;4.386;2024-01-10T10:57:49;-0.30;87.00
39675;DHT22;27790;50.840;4.386;2024-01-10T11:00:18;-0.20;86.30
39675;DHT22;27790;50.840;4.386;2024-01-10T11:02:44;-0.30;86.00
39675;DHT22;27790;50.840;4.386;2024-01-10T11:05:10;-0.30;86.50
39675;DHT22;27790;50.840;4.386;2024-01-10T11:07:41;-0.20;87.00
39675;DHT22;27790;50.840;4.386;2024-01-10T11:10:11;-0.10;86.90
39675;DHT22;27790;50.840;4.386;2024-01-10T11:23:50;0.00;87.10
39675;DHT22;27790;50.840;4.386;2024-01-10T11:26:16;0.00;86.50
39675;DHT22;27790;50.840;4.386;2024-01-10T11:28:42;0.10;87.00
39675;DHT22;27790;50.840;4.386;2024-01-10T11:31:08;0.10;87.30
39675;DHT22;27790;50.840;4.386;2024-01-10T11:33:36;0.20;87.40
39675;DHT22;27790;50.840;4.386;2024-01-10T11:36:18;0.30;87.00
39675;DHT22;27790;50.840;4.386;2024-01-10T11:38:49;0.20;86.60
39675;DHT22;27790;50.840;4.386;2024-01-10T11:41:36;0.20;86.30
39675;DHT22;27790;50.840;4.386;2024-01-10T11:46:46;0.20;85.90
39675;DHT22;27790;50.840;4.386;2024-01-10T11:49:14;0.20;85.60
39675;DHT22;27790;50.840;4.386;2024-01-10T11:51:44;0.20;85.00
39675;DHT22;27790;50.840;4.386;2024-01-10T11:54:10;0.20;85.40
39675;DHT22;27790;50.840;4.386;2024-01-10T11:56:40;0.20;85.60
39675;DHT22;27790;50.840;4.386;2024-01-10T11:59:07;0.20;84.90
39675;DHT22;27790;50.840;4.386;2024-01-10T12:01:35;0.10;84.50
39675;DHT22;27790;50.840;4.386;2024-01-10T12:04:03;0.00;85.00
39675;DHT22;27790;50.840;4.386;2024-01-10T12:06:35;0.00;85.10
39675;DHT22;27790;50.840;4.386;2024-01-10T12:09:02;0.10;85.10
39675;DHT22;27790;50.840;4.386;2024-01-10T12:11:34;0.20;84.90
39675;DHT22;27790;50.840;4.386;2024-01-10T12:13:59;0.40;84.60
39675;DHT22;27790;50.840;4.386;2024-01-10T12:16:25;0.40;84.30
39675;DHT22;27790;50.840;4.386;2024-01-10T12:18:51;0.50;84.20
39675;DHT22;27790;50.840;4.386;2024-01-10T12:21:17;0.60;83.70
39675;DHT22;27790;50.840;4.386;2024-01-10T12:23:43;0.50;83.70
39675;DHT22;27790;50.840;4.386;2024-01-10T12:26:11;0.30;83.90
39675;DHT22;27790;50.840;4.386;2024-01-10T12:28:38;0.30;83.60
39675;DHT22;27790;50.840;4.386;2024-01-10T12:31:05;0.40;83.60
39675;DHT22;27790;50.840;4.386;2024-01-10T12:33:34;0.40;83.90
39675;DHT22;27790;50.840;4.386;2024-01-10T12:36:11;0.50;84.00
39675;DHT22;27790;50.840;4.386;2024-01-10T12:38:40;0.50;83.30
39675;DHT22;27790;50.840;4.386;2024-01-10T12:41:06;0.50;83.10
39675;DHT22;27790;50.840;4.386;2024-01-10T12:43:34;0.50;83.20
39675;DHT22;27790;50.840;4.386;2024-01-10T12:46:04;0.60;83.20
39675;DHT22;27790;50.840;4.386;2024-01-10T12:48:30;0.50;83.50
39675;DHT22;27790;50.840;4.386;2024-01-10T12:50:56;0.40;83.60
39675;DHT22;27790;50.840;4.386;2024-01-10T12:53:22;0.40;83.60
39675;DHT22;27790;50.840;4.386;2024-01-10T12:55:48;0.40;84.40
39675;DHT22;27790;50.840;4.386;2024-01-10T12:58:13;0.50;83.80
39675;DHT22;27790;50.840;4.386;2024-01-10T13:00:39;0.60;83.50
39675;DHT22;27790;50.840;4.386;2024-01-10T13:03:05;0.60;83.30
39675;DHT22;27790;50.840;4.386;2024-01-10T13:05:31;0.70;82.60
39675;DHT22;27790;50.840;4.386;2024-01-10T13:07:57;0.80;82.40
39675;DHT22;27790;50.840;4.386;2024-01-10T13:10:22;0.80;82.20
39675;DHT22;27790;50.840;4.386;2024-01-10T13:12:48;0.80;82.10
39675;DHT22;27790;50.840;4.386;2024-01-10T13:15:13;0.90;82.20
39675;DHT22;27790;50.840;4.386;2024-01-10T13:17:39;1.00;82.40
39675;DHT22;27790;50.840;4.386;2024-01-10T13:20:05;1.10;81.80
39675;DHT22;27790;50.840;4.386;2024-01-10T13:22:31;1.20;81.60
39675;DHT22;27790;50.840;4.386;2024-01-10T13:24:57;1.30;81.40
39675;DHT22;27790;50.840;4.386;2024-01-10T13:27:22;1.30;80.90
39675;DHT22;27790;50.840;4.386;2024-01-10T13:29:48;1.30;81.10
39675;DHT22;27790;50.840;4.386;2024-01-10T13:32:13;1.30;80.70
39675;DHT22;27790;50.840;4.386;2024-01-10T13:34:41;1.30;80.90
39675;DHT22;27790;50.840;4.386;2024-01-10T13:37:06;1.20;81.00
39675;DHT22;27790;50.840;4.386;2024-01-10T13:39:33;1.20;81.80
39675;DHT22;27790;50.840;4.386;2024-01-10T13:41:58;1.30;81.80
39675;DHT22;27790;50.840;4.386;2024-01-10T13:44:24;1.40;81.60
39675;DHT22;27790;50.840;4.386;2024-01-10T13:46:49;1.60;81.30
39675;DHT22;27790;50.840;4.386;2024-01-10T13:49:16;1.60;80.90
39675;DHT22;27790;50.840;4.386;2024-01-10T13:51:42;1.70;79.50
39675;DHT22;27790;50.840;4.386;2024-01-10T13:54:08;1.60;80.20
39675;DHT22;27790;50.840;4.386;2024-01-10T13:56:33;1.60;80.40
39675;DHT22;27790;50.840;4.386;2024-01-10T13:58:59;1.70;79.40
39675;DHT22;27790;50.840;4.386;2024-01-10T14:01:25;1.70;79.60
39675;DHT22;27790;50.840;4.386;2024-01-10T14:03:51;1.60;80.00
39675;DHT22;27790;50.840;4.386;2024-01-10T14:06:17;1.70;80.00
39675;DHT22;27790;50.840;4.386;2024-01-10T14:08:42;1.70;80.40
39675;DHT22;27790;50.840;4.386;2024-01-10T14:11:09;1.70;79.60
39675;DHT22;27790;50.840;4.386;2024-01-10T14:13:34;1.80;79.10
39675;DHT22;27790;50.840;4.386;2024-01-10T14:16:00;1.70;79.40
39675;DHT22;27790;50.840;4.386;2024-01-10T14:18:26;1.60;80.10
39675;DHT22;27790;50.840;4.386;2024-01-10T14:20:52;1.70;80.50
39675;DHT22;27790;50.840;4.386;2024-01-10T14:23:17;1.80;80.00
39675;DHT22;27790;50.840;4.386;2024-01-10T14:25:43;1.80;79.90
39675;DHT22;27790;50.840;4.386;2024-01-10T14:28:08;1.80;80.00
39675;DHT22;27790;50.840;4.386;2024-01-10T14:30:34;1.80;80.00
39675;DHT22;27790;50.840;4.386;2024-01-10T14:32:59;1.80;79.60
39675;DHT22;27790;50.840;4.386;2024-01-10T14:35:25;1.80;79.60
39675;DHT22;27790;50.840;4.386;2024-01-10T14:37:51;1.80;80.10
39675;DHT22;27790;50.840;4.386;2024-01-10T14:40:16;1.80;80.10
39675;DHT22;27790;50.840;4.386;2024-01-10T14:42:42;1.90;79.80
39675;DHT22;27790;50.840;4.386;2024-01-10T14:45:07;1.90;79.60
39675;DHT22;27790;50.840;4.386;2024-01-10T14:47:34;1.90;79.40
39675;DHT22;27790;50.840;4.386;2024-01-10T14:50:00;1.90;79.70
39675;DHT22;27790;50.840;4.386;2024-01-10T14:52:26;1.90;80.00
39675;DHT22;27790;50.840;4.386;2024-01-10T14:54:52;1.90;79.60
39675;DHT22;27790;50.840;4.386;2024-01-10T14:57:18;1.90;79.80
39675;DHT22;27790;50.840;4.386;2024-01-10T14:59:43;1.90;79.70
39675;DHT22;27790;50.840;4.386;2024-01-10T15:02:09;1.90;79.80
39675;DHT22;27790;50.840;4.386;2024-01-10T15:04:38;1.80;80.20
39675;DHT22;27790;50.840;4.386;2024-01-10T15:07:05;1.80;80.50
39675;DHT22;27790;50.840;4.386;2024-01-10T15:09:31;1.80;80.70
39675;DHT22;27790;50.840;4.386;2024-01-10T15:11:56;1.80;80.60
39675;DHT22;27790;50.840;4.386;2024-01-10T15:14:22;1.80;80.70
39675;DHT22;27790;50.840;4.386;2024-01-10T15:16:48;1.80;80.80
39675;DHT22;27790;50.840;4.386;2024-01-10T15:19:14;1.80;81.00
39675;DHT22;27790;50.840;4.386;2024-01-10T15:21:40;1.90;81.10
39675;DHT22;27790;50.840;4.386;2024-01-10T15:24:06;1.90;81.30
39675;DHT22;27790;50.840;4.386;2024-01-10T15:26:31;1.80;81.10
39675;DHT22;27790;50.840;4.386;2024-01-10T15:28:57;1.90;81.00
39675;DHT22;27790;50.840;4.386;2024-01-10T15:31:24;1.90;80.80
39675;DHT22;27790;50.840;4.386;2024-01-10T15:33:51;1.80;81.00
39675;DHT22;27790;50.840;4.386;2024-01-10T15:36:16;1.90;81.20
39675;DHT22;27790;50.840;4.386;2024-01-10T15:38:42;2.00;80.90
39675;DHT22;27790;50.840;4.386;2024-01-10T15:41:09;2.20;80.50
39675;DHT22;27790;50.840;4.386;2024-01-10T15:43:35;2.20;80.60
39675;DHT22;27790;50.840;4.386;2024-01-10T15:46:01;2.20;80.30
39675;DHT22;27790;50.840;4.386;2024-01-10T15:48:27;2.10;80.40
39675;DHT22;27790;50.840;4.386;2024-01-10T15:50:56;2.10;80.60